GOBD Airport Information

Runway Information
Airport Frequencies
Airport Navaids
Airport Weather Information & NOTAM
ADDS - METARS form results

(1839 UTC 25 February 2021)
Data provider http://aviationweather.gov/metar/data/
 
METAR text: GOBD 251830Z 34011KT 8000 NSC 30/04 Q1011 NOSIG
Conditions at: GOBD (DAKAR/DIAGNE , SN) observed 1830 UTC 25 February 2021
Temperature: 30.0°C (86°F)
Dewpoint: 4.0°C (39°F) [RH = 19%]
Pressure (altimeter): 29.85 inches Hg (1011.0 mb)
Winds: from the NNW (340 degrees) at 13 MPH (11 knots; 5.7 m/s)
Visibility: 5 miles ( 8 km)
Ceiling: at least 12,000 feet AGL
Clouds: sky clear below 12,000 feet AGL
Weather: no significant weather observed at this time

METAR text: GOBD 251800Z 34012KT 8000 NSC 33/04 Q1010 NOSIG
Conditions at: GOBD (DAKAR/DIAGNE , SN) observed 1800 UTC 25 February 2021
Temperature: 33.0°C (91°F)
Dewpoint: 4.0°C (39°F) [RH = 16%]
Pressure (altimeter): 29.82 inches Hg (1010.0 mb)
Winds: from the NNW (340 degrees) at 14 MPH (12 knots; 6.2 m/s)
Visibility: 5 miles ( 8 km)
Ceiling: at least 12,000 feet AGL
Clouds: sky clear below 12,000 feet AGL
Weather: no significant weather observed at this time

Forecast for: GOBD (DAKAR/DIAGNE , SN)
Text: TAF GOBD 251700Z 2518/2624 36012KT CAVOK
Forecast period: 1800 UTC 25 February 2021 to 0800 UTC 26 February 2021
Forecast type: FROM: standard forecast or significant change
Winds: from the N (360 degrees) at 14 MPH (12 knots; 6.2 m/s)
Visibility: 6 or more miles (10+ km)
Ceiling: unknown
Clouds: missing
Weather: NSW  (no significant weather)
Text: BECMG 2608/2610 07015KT
Forecast period: 0800 to 1600 UTC 26 February 2021
Forecast type: BECOMING: Conditions expected to become as follows by 1000 UTC 26 February 2021
Winds: from the ENE (70 degrees) at 17 MPH (15 knots; 7.7 m/s)
Visibility: 6 or more miles (10+ km)
Ceiling: unknown
Clouds: missing
Weather: NSW  (no significant weather)
Text: BECMG 2616/2618 36012KT
Forecast period: 1600 UTC 26 February 2021 to 0000 UTC 27 February 2021
Forecast type: BECOMING: Conditions expected to become as follows by 1800 UTC 26 February 2021
Winds: from the N (360 degrees) at 14 MPH (12 knots; 6.2 m/s)
Visibility: 6 or more miles (10+ km)
Ceiling: unknown
Clouds: missing
Weather: NSW  (no significant weather)